Time,TemperatureF,DewpointF,PressureIn,WindDirection,WindDirectionDegrees,WindSpeedMPH,WindSpeedGustMPH,Humidity,HourlyPrecipIn,Conditions,Clouds,dailyrainin,SolarRadiationWatts/m^2,SoftwareType,DateUTC
2013-01-21 00:00:00,12.7,0.7,30.36,WNW,292,2.2,2.4,58,0.00,CLR,SCT,0.00,0.0,WeatherDisplay:10.37,2013-01-21 06:00:00,
2013-01-21 00:05:00,12.9,0.9,30.36,NW,315,2.9,4.6,58,0.00,CLR,SCT,0.00,0.0,WeatherDisplay:10.37,2013-01-21 06:05:00,
2013-01-21 00:10:00,13.1,1.1,30.36,WNW,292,2.4,3.5,58,0.00,CLR,SCT,0.00,0.0,WeatherDisplay:10.37,2013-01-21 06:10:00,
2013-01-21 00:15:00,13.3,1.2,30.36,West,270,0.0,2.3,58,0.00,CLR,SCT,0.00,0.0,WeatherDisplay:10.37,2013-01-21 06:15:00,
2013-01-21 00:20:00,13.5,1.4,30.36,WNW,292,2.2,3.5,58,0.00,CLR,SCT,0.00,0.0,WeatherDisplay:10.37,2013-01-21 06:20:00,
2013-01-21 00:25:00,13.6,1.6,30.36,WNW,292,2.9,3.5,58,0.00,CLR,SCT,0.00,0.0,WeatherDisplay:10.37,2013-01-21 06:25:00,
2013-01-21 00:30:00,13.6,1.6,30.36,WNW,292,3.1,3.5,58,0.00,CLR,SCT,0.00,0.0,WeatherDisplay:10.37,2013-01-21 06:30:00,
2013-01-21 00:36:00,13.8,1.7,30.36,North,0,2.6,4.6,58,0.00,CLR,SCT,0.00,0.0,WeatherDisplay:10.37,2013-01-21 06:36:00,
2013-01-21 00:41:00,14.0,5.1,30.36,NNW,338,2.2,3.6,67,0.00,CLR,SCT,0.00,0.0,WeatherDisplay:10.37,2013-01-21 06:41:00,
2013-01-21 00:46:00,14.2,5.2,30.33,North,0,1.4,3.5,67,0.00,CLR,SCT,0.00,0.0,WeatherDisplay:10.37,2013-01-21 06:46:00,
2013-01-21 00:51:00,14.2,4.9,30.33,WNW,292,2.0,4.6,66,0.00,CLR,SCT,0.00,0.0,WeatherDisplay:10.37,2013-01-21 06:51:00,
2013-01-21 00:56:00,14.4,5.1,30.33,NNE,22,2.9,5.8,66,0.00,CLR,SCT,0.00,0.0,WeatherDisplay:10.37,2013-01-21 06:56:00,
2013-01-21 01:01:00,14.4,5.1,30.36,NNW,338,2.4,4.6,66,0.00,CLR,SCT,0.00,0.0,WeatherDisplay:10.37,2013-01-21 07:01:00,
2013-01-21 01:06:00,14.5,4.9,30.36,NNE,22,2.2,4.6,65,0.00,CLR,SCT,0.00,0.0,WeatherDisplay:10.37,2013-01-21 07:06:00,
2013-01-21 01:11:00,14.5,4.6,30.36,NNE,22,2.6,4.6,64,0.00,CLR,SCT,0.00,0.0,WeatherDisplay:10.37,2013-01-21 07:11:00,
2013-01-21 01:16:00,14.5,4.2,30.36,NNE,22,2.4,4.6,63,0.00,CLR,SCT,0.00,0.0,WeatherDisplay:10.37,2013-01-21 07:16:00,
2013-01-21 01:21:00,14.5,4.2,30.36,West,270,2.0,2.3,63,0.00,CLR,SCT,0.00,0.0,WeatherDisplay:10.37,2013-01-21 07:21:00,
2013-01-21 01:26:00,14.5,3.9,30.36,NNE,22,2.9,6.2,62,0.00,CLR,SCT,0.00,0.0,WeatherDisplay:10.37,2013-01-21 07:26:00,
2013-01-21 01:31:00,14.5,3.9,30.36,WSW,248,2.9,4.6,62,0.00,CLR,SCT,0.00,0.0,WeatherDisplay:10.37,2013-01-21 07:31:00,
2013-01-21 01:36:00,14.5,3.5,30.36,North,0,4.3,4.6,61,0.00,CLR,SCT,0.00,0.0,WeatherDisplay:10.37,2013-01-21 07:36:00,
2013-01-21 01:42:00,14.4,1.5,30.36,NNE,22,2.6,4.6,56,0.00,CLR,SCT,0.00,0.0,WeatherDisplay:10.37,2013-01-21 07:42:00,
2013-01-21 01:47:00,14.4,0.7,30.36,North,0,2.6,5.8,54,0.00,CLR,SCT,0.00,0.0,WeatherDisplay:10.37,2013-01-21 07:47:00,
2013-01-21 01:52:00,14.2,0.2,30.36,NNW,338,2.9,3.5,53,0.00,CLR,SCT,0.00,0.0,WeatherDisplay:10.37,2013-01-21 07:52:00,
2013-01-21 01:57:00,14.0,-0.4,30.36,NNE,22,3.6,4.6,52,0.00,CLR,SCT,0.00,0.0,WeatherDisplay:10.37,2013-01-21 07:57:00,
2013-01-21 02:02:00,13.8,-0.2,30.36,NNW,338,2.6,4.6,53,0.00,CLR,SCT,0.00,0.0,WeatherDisplay:10.37,2013-01-21 08:02:00,
2013-01-21 02:07:00,13.8,-0.2,30.36,West,270,3.1,4.6,53,0.00,CLR,SCT,0.00,0.0,WeatherDisplay:10.37,2013-01-21 08:07:00,
2013-01-21 02:12:00,13.6,-0.3,30.36,SSE,158,3.1,6.9,53,0.00,CLR,SCT,0.00,0.0,WeatherDisplay:10.37,2013-01-21 08:12:00,
2013-01-21 02:17:00,13.6,-0.3,30.33,NE,45,4.9,5.8,53,0.00,CLR,SCT,0.00,0.0,WeatherDisplay:10.37,2013-01-21 08:17:00,
2013-01-21 02:22:00,13.5,-0.5,30.33,NNE,22,5.9,8.1,53,0.00,CLR,SCT,0.00,0.0,WeatherDisplay:10.37,2013-01-21 08:22:00,
2013-01-21 02:27:00,13.5,-0.5,30.36,North,0,4.3,5.8,53,0.00,CLR,SCT,0.00,0.0,WeatherDisplay:10.37,2013-01-21 08:27:00,
2013-01-21 02:32:00,13.5,-0.5,30.36,NNE,22,3.1,5.9,53,0.00,CLR,SCT,0.00,0.0,WeatherDisplay:10.37,2013-01-21 08:32:00,
2013-01-21 02:37:00,13.3,-0.7,30.36,North,0,4.0,6.0,53,0.00,CLR,SCT,0.00,0.0,WeatherDisplay:10.37,2013-01-21 08:37:00,
2013-01-21 02:42:00,13.3,-0.7,30.36,NNE,22,4.3,6.9,53,0.00,CLR,SCT,0.00,0.0,WeatherDisplay:10.37,2013-01-21 08:42:00,
2013-01-21 02:47:00,13.3,-0.7,30.36,NNE,22,3.3,5.8,53,0.00,CLR,SCT,0.00,0.0,WeatherDisplay:10.37,2013-01-21 08:47:00,
2013-01-21 02:53:00,13.3,-0.7,30.36,WNW,292,6.7,10.5,53,0.00,CLR,SCT,0.00,0.0,WeatherDisplay:10.37,2013-01-21 08:53:00,
2013-01-21 02:58:00,13.1,-0.9,30.36,North,0,2.9,8.1,53,0.00,CLR,SCT,0.00,0.0,WeatherDisplay:10.37,2013-01-21 08:58:00,
2013-01-21 03:03:00,12.9,-1.0,30.36,NNW,338,5.9,12.7,53,0.00,CLR,SCT,0.00,0.0,WeatherDisplay:10.37,2013-01-21 09:03:00,
2013-01-21 03:08:00,12.9,-1.0,30.36,WSW,248,3.8,9.2,53,0.00,CLR,SCT,0.00,0.0,WeatherDisplay:10.37,2013-01-21 09:08:00,
2013-01-21 03:13:00,12.9,-1.0,30.36,ENE,68,4.5,8.1,53,0.00,CLR,SCT,0.00,0.0,WeatherDisplay:10.37,2013-01-21 09:13:00,
2013-01-21 03:18:00,12.7,-1.2,30.36,North,0,3.6,6.9,53,0.00,CLR,SCT,0.00,0.0,WeatherDisplay:10.37,2013-01-21 09:18:00,
2013-01-21 03:23:00,12.2,-1.7,30.36,SW,225,4.0,7.6,53,0.00,CLR,SCT,0.00,0.0,WeatherDisplay:10.37,2013-01-21 09:23:00,
2013-01-21 03:28:00,12.0,-1.9,30.39,NNE,22,3.3,7.6,53,0.00,CLR,SCT,0.00,0.0,WeatherDisplay:10.37,2013-01-21 09:28:00,
2013-01-21 03:33:00,11.7,-2.2,30.39,NE,45,3.3,3.5,53,0.00,CLR,SCT,0.00,0.0,WeatherDisplay:10.37,2013-01-21 09:33:00,
2013-01-21 03:38:00,11.7,-2.2,30.39,NNE,22,2.0,2.3,53,0.00,CLR,SCT,0.00,0.0,WeatherDisplay:10.37,2013-01-21 09:38:00,
2013-01-21 03:43:00,11.7,-2.2,30.36,WNW,292,1.6,8.5,53,0.00,CLR,SCT,0.00,0.0,WeatherDisplay:10.37,2013-01-21 09:43:00,
2013-01-21 03:48:00,11.5,-2.4,30.36,SSW,202,3.3,8.1,53,0.00,CLR,SCT,0.00,0.0,WeatherDisplay:10.37,2013-01-21 09:48:00,
2013-01-21 03:53:00,11.3,-2.5,30.36,North,0,3.6,5.8,53,0.00,CLR,SCT,0.00,0.0,WeatherDisplay:10.37,2013-01-21 09:53:00,
2013-01-21 03:58:00,11.3,-2.5,30.36,WNW,292,3.3,5.8,53,0.00,CLR,SCT,0.00,0.0,WeatherDisplay:10.37,2013-01-21 09:58:00,
2013-01-21 04:03:00,11.1,-2.7,30.36,WNW,292,4.5,8.1,53,0.00,CLR,SCT,0.00,0.0,WeatherDisplay:10.37,2013-01-21 10:03:00,
2013-01-21 04:08:00,11.1,-2.7,30.36,WNW,292,3.6,5.9,53,0.00,CLR,SCT,0.00,0.0,WeatherDisplay:10.37,2013-01-21 10:08:00,
2013-01-21 04:13:00,11.1,-2.7,30.36,WNW,292,6.0,13.2,53,0.00,CLR,SCT,0.00,0.0,WeatherDisplay:10.37,2013-01-21 10:13:00,
2013-01-21 04:18:00,11.1,-2.7,30.36,WNW,292,6.0,9.2,53,0.00,CLR,SCT,0.00,0.0,WeatherDisplay:10.37,2013-01-21 10:18:00,
2013-01-21 04:23:00,11.1,-2.7,30.36,NNW,338,4.5,7.8,53,0.00,CLR,SCT,0.00,0.0,WeatherDisplay:10.37,2013-01-21 10:23:00,
2013-01-21 04:28:00,11.1,-2.7,30.36,NNW,338,6.2,10.4,53,0.00,CLR,SCT,0.00,0.0,WeatherDisplay:10.37,2013-01-21 10:28:00,
2013-01-21 04:33:00,11.1,-2.7,30.36,NNW,338,5.4,9.2,53,0.00,CLR,SCT,0.00,0.0,WeatherDisplay:10.37,2013-01-21 10:33:00,
2013-01-21 04:38:00,10.9,-2.9,30.36,WNW,292,5.6,8.1,53,0.00,CLR,SCT,0.00,0.0,WeatherDisplay:10.37,2013-01-21 10:38:00,
2013-01-21 04:43:00,10.8,-3.0,30.33,NNW,338,7.6,10.4,53,0.00,CLR,SCT,0.00,0.0,WeatherDisplay:10.37,2013-01-21 10:43:00,
2013-01-21 04:48:00,10.8,-3.0,30.33,West,270,4.9,9.4,53,0.00,CLR,SCT,0.00,0.0,WeatherDisplay:10.37,2013-01-21 10:48:00,
2013-01-21 04:53:00,10.4,-3.4,30.33,NNE,22,7.4,12.7,53,0.00,CLR,SCT,0.00,0.0,WeatherDisplay:10.37,2013-01-21 10:53:00,
2013-01-21 04:58:00,10.2,-3.5,30.36,NE,45,5.4,8.1,53,0.00,CLR,SCT,0.00,0.0,WeatherDisplay:10.37,2013-01-21 10:58:00,
2013-01-21 05:03:00,10.4,-3.4,30.36,South,180,3.3,3.5,53,0.00,CLR,SCT,0.00,0.0,WeatherDisplay:10.37,2013-01-21 11:03:00,
2013-01-21 05:08:00,10.2,-3.5,30.36,North,0,4.5,5.9,53,0.00,CLR,SCT,0.00,0.0,WeatherDisplay:10.37,2013-01-21 11:08:00,
2013-01-21 05:13:00,10.0,-3.7,30.36,NE,45,3.6,4.6,53,0.00,CLR,SCT,0.00,0.0,WeatherDisplay:10.37,2013-01-21 11:13:00,
2013-01-21 05:18:00,9.7,-4.1,30.36,South,180,4.7,9.2,53,0.00,CLR,SCT,0.00,0.0,WeatherDisplay:10.37,2013-01-21 11:18:00,
2013-01-21 05:23:00,9.3,-4.4,30.36,North,0,4.3,5.8,53,0.00,CLR,SCT,0.00,0.0,WeatherDisplay:10.37,2013-01-21 11:23:00,
2013-01-21 05:28:00,9.0,-4.7,30.33,NNE,22,3.8,4.6,53,0.00,CLR,SCT,0.00,0.0,WeatherDisplay:10.37,2013-01-21 11:28:00,
2013-01-21 05:33:00,8.8,-4.9,30.33,NNW,338,3.3,4.6,53,0.00,CLR,SCT,0.00,0.0,WeatherDisplay:10.37,2013-01-21 11:33:00,
2013-01-21 05:38:00,8.6,-5.1,30.33,NNW,338,4.3,7.1,53,0.00,CLR,SCT,0.00,0.0,WeatherDisplay:10.37,2013-01-21 11:38:00,
2013-01-21 05:43:00,8.4,-5.2,30.36,NNE,22,3.8,6.0,53,0.00,CLR,SCT,0.00,0.0,WeatherDisplay:10.37,2013-01-21 11:43:00,
2013-01-21 05:48:00,8.4,-5.2,30.36,North,0,2.2,3.5,53,0.00,CLR,SCT,0.00,0.0,WeatherDisplay:10.37,2013-01-21 11:48:00,
2013-01-21 05:53:00,8.2,-5.4,30.36,NNE,22,4.7,10.4,53,0.00,CLR,SCT,0.00,0.0,WeatherDisplay:10.37,2013-01-21 11:53:00,
2013-01-21 05:58:00,8.1,-5.6,30.36,ENE,68,5.4,5.8,53,0.00,CLR,SCT,0.00,0.0,WeatherDisplay:10.37,2013-01-21 11:58:00,
2013-01-21 06:03:00,8.1,-5.6,30.36,NNW,338,5.4,5.8,53,0.00,CLR,SCT,0.00,0.0,WeatherDisplay:10.37,2013-01-21 12:03:00,
2013-01-21 06:08:00,7.9,-5.7,30.36,NNE,22,4.9,8.1,53,0.00,CLR,SCT,0.00,0.0,WeatherDisplay:10.37,2013-01-21 12:08:00,
2013-01-21 06:13:00,7.9,-5.7,30.36,NNE,22,3.1,6.4,53,0.00,CLR,SCT,0.00,0.0,WeatherDisplay:10.37,2013-01-21 12:13:00,
2013-01-21 06:18:00,7.7,-5.9,30.36,ENE,68,3.8,5.8,53,0.00,CLR,SCT,0.00,0.0,WeatherDisplay:10.37,2013-01-21 12:18:00,
2013-01-21 06:23:00,7.7,-5.9,30.36,NNW,338,4.5,6.9,53,0.00,CLR,SCT,0.00,0.0,WeatherDisplay:10.37,2013-01-21 12:23:00,
2013-01-21 06:28:00,7.7,-5.9,30.36,NNE,22,4.3,5.8,53,0.00,CLR,SCT,0.00,0.0,WeatherDisplay:10.37,2013-01-21 12:28:00,
2013-01-21 06:33:00,7.7,-5.9,30.36,North,0,3.6,5.8,53,0.00,CLR,SCT,0.00,0.0,WeatherDisplay:10.37,2013-01-21 12:33:00,
2013-01-21 06:38:00,7.5,-6.1,30.36,NNE,22,3.3,5.8,53,0.00,CLR,SCT,0.00,0.0,WeatherDisplay:10.37,2013-01-21 12:38:00,
2013-01-21 06:44:00,7.3,-6.2,30.36,South,180,2.9,5.8,53,0.00,CLR,SCT,0.00,0.0,WeatherDisplay:10.37,2013-01-21 12:44:00,
2013-01-21 06:49:00,7.2,-6.4,30.36,SSE,158,4.3,5.8,53,0.00,CLR,SCT,0.00,0.0,WeatherDisplay:10.37,2013-01-21 12:49:00,
2013-01-21 06:54:00,6.8,-6.7,30.36,NNW,338,3.1,5.8,53,0.00,CLR,SCT,0.00,0.0,WeatherDisplay:10.37,2013-01-21 12:54:00,
2013-01-21 06:59:00,6.6,-6.9,30.36,North,0,4.0,8.5,53,0.00,CLR,SCT,0.00,0.0,WeatherDisplay:10.37,2013-01-21 12:59:00,
2013-01-21 07:04:00,6.3,-7.2,30.36,North,0,4.7,5.9,53,0.00,CLR,SCT,0.00,0.0,WeatherDisplay:10.37,2013-01-21 13:04:00,
2013-01-21 07:09:00,6.3,-7.2,30.36,NNE,22,3.6,5.8,53,0.00,CLR,SCT,0.00,0.0,WeatherDisplay:10.37,2013-01-21 13:09:00,
2013-01-21 07:14:00,6.1,-7.4,30.33,NNE,22,4.5,6.9,53,0.00,OVC,SCT,0.00,0.0,WeatherDisplay:10.37,2013-01-21 13:14:00,
2013-01-21 07:19:00,5.9,-7.6,30.33,NNE,22,2.9,3.5,53,0.00,OVC,SCT,0.00,0.0,WeatherDisplay:10.37,2013-01-21 13:19:00,
2013-01-21 07:24:00,5.9,-7.6,30.33,South,180,3.3,4.6,53,0.00,OVC,SCT,0.00,0.0,WeatherDisplay:10.37,2013-01-21 13:24:00,
2013-01-21 07:29:00,5.7,-7.8,30.36,North,0,2.0,4.0,53,0.00,OVC,SCT,0.00,0.0,WeatherDisplay:10.37,2013-01-21 13:29:00,
2013-01-21 07:34:00,5.5,-7.9,30.36,NNE,22,3.1,5.8,53,0.00,OVC,SCT,0.00,0.0,WeatherDisplay:10.37,2013-01-21 13:34:00,
2013-01-21 07:39:00,5.5,-7.9,30.36,ESE,112,2.6,4.6,53,0.00,OVC,SCT,0.00,0.0,WeatherDisplay:10.37,2013-01-21 13:39:00,
2013-01-21 07:44:00,5.4,-8.1,30.33,NNE,22,3.1,5.8,53,0.00,OVC,SCT,0.00,0.0,WeatherDisplay:10.37,2013-01-21 13:44:00,
2013-01-21 07:50:00,5.4,-8.1,30.33,NNE,22,4.3,6.9,53,0.00,OVC,SCT,0.00,0.0,WeatherDisplay:10.37,2013-01-21 13:50:00,
2013-01-21 07:55:00,5.4,-8.1,30.33,WNW,292,3.1,5.8,53,0.00,OVC,SCT,0.00,0.0,WeatherDisplay:10.37,2013-01-21 13:55:00,
2013-01-21 08:00:00,5.2,-8.3,30.36,WSW,248,2.6,5.8,53,0.00,OVC,SCT,0.00,0.0,WeatherDisplay:10.37,2013-01-21 14:00:00,
2013-01-21 08:05:00,5.2,-8.3,30.36,NNE,22,4.7,5.8,53,0.00,OVC,SCT,0.00,0.0,WeatherDisplay:10.37,2013-01-21 14:05:00,
2013-01-21 08:10:00,5.2,-8.3,30.36,NNE,22,3.3,5.8,53,0.00,OVC,SCT,0.00,0.0,WeatherDisplay:10.37,2013-01-21 14:10:00,
2013-01-21 08:15:00,5.2,-8.3,30.33,WSW,248,3.8,3.8,53,0.00,OVC,SCT,0.00,0.0,WeatherDisplay:10.37,2013-01-21 14:15:00,
2013-01-21 08:21:00,5.0,-8.4,30.33,NNW,338,2.4,6.9,53,0.00,OVC,SCT,0.00,0.0,WeatherDisplay:10.37,2013-01-21 14:21:00,
2013-01-21 08:26:00,5.2,-8.3,30.33,WNW,292,3.8,5.8,53,0.00,OVC,SCT,0.00,0.0,WeatherDisplay:10.37,2013-01-21 14:26:00,
2013-01-21 08:31:00,5.2,-8.3,30.36,WNW,292,2.2,3.5,53,0.00,OVC,SCT,0.00,0.0,WeatherDisplay:10.37,2013-01-21 14:31:00,
2013-01-21 08:36:00,5.4,-8.1,30.36,NW,315,2.6,5.8,53,0.00,OVC,SCT,0.00,0.0,WeatherDisplay:10.37,2013-01-21 14:36:00,
2013-01-21 08:41:00,5.2,-8.3,30.36,North,0,2.6,4.0,53,0.00,OVC,SCT,0.00,0.0,WeatherDisplay:10.37,2013-01-21 14:41:00,
2013-01-21 08:46:00,5.4,-8.1,30.36,ENE,68,2.4,3.5,53,0.00,OVC,SCT,0.00,0.0,WeatherDisplay:10.37,2013-01-21 14:46:00,
2013-01-21 08:51:00,5.4,-8.1,30.36,ESE,112,1.6,3.5,53,0.00,OVC,SCT,0.00,0.0,WeatherDisplay:10.37,2013-01-21 14:51:00,
2013-01-21 08:56:00,5.5,-7.9,30.36,West,270,3.1,4.6,53,0.00,OVC,SCT,0.00,0.0,WeatherDisplay:10.37,2013-01-21 14:56:00,
2013-01-21 09:01:00,5.5,-7.9,30.36,NNW,338,3.8,4.9,53,0.00,OVC,SCT,0.00,0.0,WeatherDisplay:10.37,2013-01-21 15:01:00,
2013-01-21 09:07:00,5.5,-7.9,30.36,WSW,248,2.6,3.6,53,0.00,OVC,SCT,0.00,0.0,WeatherDisplay:10.37,2013-01-21 15:07:00,
2013-01-21 09:12:00,5.5,-7.9,30.36,North,0,3.8,4.6,53,0.00,OVC,SCT,0.00,0.0,WeatherDisplay:10.37,2013-01-21 15:12:00,
2013-01-21 09:17:00,5.9,-7.6,30.36,West,270,2.9,5.8,53,0.00,OVC,SCT,0.00,0.0,WeatherDisplay:10.37,2013-01-21 15:17:00,
2013-01-21 09:22:00,5.9,-7.6,30.36,SSW,202,3.1,5.8,53,0.00,OVC,SCT,0.00,0.0,WeatherDisplay:10.37,2013-01-21 15:22:00,
2013-01-21 09:27:00,6.1,-7.4,30.36,WSW,248,4.3,8.1,53,0.00,OVC,SCT,0.00,0.0,WeatherDisplay:10.37,2013-01-21 15:27:00,
2013-01-21 09:32:00,6.3,-7.2,30.36,NNW,338,3.8,4.6,53,0.00,OVC,SCT,0.00,0.0,WeatherDisplay:10.37,2013-01-21 15:32:00,
2013-01-21 09:37:00,6.4,-7.1,30.36,SSW,202,3.6,4.6,53,0.00,OVC,SCT,0.00,0.0,WeatherDisplay:10.37,2013-01-21 15:37:00,
2013-01-21 09:42:00,6.4,-7.1,30.39,WNW,292,2.4,4.9,53,0.00,OVC,SCT,0.00,0.0,WeatherDisplay:10.37,2013-01-21 15:42:00,
2013-01-21 09:47:00,6.4,-7.1,30.39,North,0,3.6,5.8,53,0.00,OVC,SCT,0.00,0.0,WeatherDisplay:10.37,2013-01-21 15:47:00,
2013-01-21 09:52:00,6.4,-7.1,30.39,North,0,3.3,5.8,53,0.00,OVC,SCT,0.00,0.0,WeatherDisplay:10.37,2013-01-21 15:52:00,
2013-01-21 09:57:00,6.4,-7.1,30.39,WNW,292,3.3,5.8,53,0.00,OVC,SCT,0.00,0.0,WeatherDisplay:10.37,2013-01-21 15:57:00,
2013-01-21 10:03:00,6.4,-7.1,30.39,WNW,292,2.2,2.9,53,0.00,OVC,SCT,0.00,0.0,WeatherDisplay:10.37,2013-01-21 16:03:00,
2013-01-21 10:08:00,6.4,-7.1,30.39,NW,315,3.3,3.6,53,0.00,OVC,SCT,0.00,0.0,WeatherDisplay:10.37,2013-01-21 16:08:00,
2013-01-21 10:13:00,6.8,-6.7,30.39,WNW,292,2.9,4.7,53,0.00,OVC,SCT,0.00,0.0,WeatherDisplay:10.37,2013-01-21 16:13:00,
2013-01-21 10:18:00,6.8,-6.7,30.39,North,0,2.2,3.5,53,0.00,OVC,SCT,0.00,0.0,WeatherDisplay:10.37,2013-01-21 16:18:00,
2013-01-21 10:23:00,6.8,-6.7,30.39,WNW,292,4.3,5.8,53,0.00,OVC,SCT,0.00,0.0,WeatherDisplay:10.37,2013-01-21 16:23:00,
2013-01-21 10:28:00,6.8,-6.7,30.39,NNE,22,4.7,5.4,53,0.00,OVC,SCT,0.00,0.0,WeatherDisplay:10.37,2013-01-21 16:28:00,
2013-01-21 10:33:00,6.8,-6.7,30.39,SSW,202,4.0,4.9,53,0.00,OVC,SCT,0.00,0.0,WeatherDisplay:10.37,2013-01-21 16:33:00,
2013-01-21 10:38:00,6.4,-7.1,30.39,NNW,338,4.7,5.6,53,0.00,OVC,SCT,0.00,0.0,WeatherDisplay:10.37,2013-01-21 16:38:00,
2013-01-21 10:44:00,6.6,-6.9,30.39,West,270,3.6,5.8,53,0.00,OVC,SCT,0.00,0.0,WeatherDisplay:10.37,2013-01-21 16:44:00,
2013-01-21 10:49:00,6.8,-6.7,30.39,NNW,338,2.0,4.0,53,0.00,OVC,SCT,0.00,0.0,WeatherDisplay:10.37,2013-01-21 16:49:00,
2013-01-21 10:54:00,6.8,-6.7,30.39,WNW,292,2.0,5.8,53,0.00,OVC,SCT,0.00,0.0,WeatherDisplay:10.37,2013-01-21 16:54:00,
2013-01-21 10:59:00,7.0,-6.6,30.39,WNW,292,1.6,3.5,53,0.00,OVC,SCT,0.00,0.0,WeatherDisplay:10.37,2013-01-21 16:59:00,
2013-01-21 11:04:00,7.0,-6.6,30.39,NNW,338,4.3,4.6,53,0.00,OVC,SCT,0.00,0.0,WeatherDisplay:10.37,2013-01-21 17:04:00,
2013-01-21 11:09:00,7.0,-6.6,30.39,NNW,338,4.7,6.9,53,0.00,OVC,SCT,0.00,0.0,WeatherDisplay:10.37,2013-01-21 17:09:00,
2013-01-21 11:14:00,7.0,-6.6,30.42,North,0,2.9,3.8,53,0.00,OVC,SCT,0.00,0.0,WeatherDisplay:10.37,2013-01-21 17:14:00,
2013-01-21 11:19:00,7.2,-6.4,30.42,NNE,22,2.4,6.9,53,0.00,OVC,SCT,0.00,0.0,WeatherDisplay:10.37,2013-01-21 17:19:00,
2013-01-21 11:24:00,7.2,-6.4,30.42,NW,315,2.9,4.3,53,0.00,OVC,SCT,0.00,0.0,WeatherDisplay:10.37,2013-01-21 17:24:00,
2013-01-21 11:29:00,7.0,-6.6,30.39,NNW,338,4.9,6.9,53,0.00,OVC,SCT,0.00,0.0,WeatherDisplay:10.37,2013-01-21 17:29:00,
2013-01-21 11:34:00,7.0,-6.6,30.39,WSW,248,3.3,4.6,53,0.00,OVC,SCT,0.00,0.0,WeatherDisplay:10.37,2013-01-21 17:34:00,
2013-01-21 11:39:00,7.0,-6.6,30.39,NNW,338,3.1,5.4,53,0.00,OVC,SCT,0.00,0.0,WeatherDisplay:10.37,2013-01-21 17:39:00,
2013-01-21 11:44:00,7.0,-6.6,30.39,ESE,112,3.6,5.8,53,0.00,OVC,SCT,0.00,0.0,WeatherDisplay:10.37,2013-01-21 17:44:00,
2013-01-21 11:49:00,7.2,-6.4,30.39,NNW,338,2.4,3.5,53,0.00,OVC,SCT,0.00,0.0,WeatherDisplay:10.37,2013-01-21 17:49:00,
2013-01-21 11:54:00,7.2,-6.4,30.39,NNE,22,2.6,5.8,53,0.00,OVC,SCT,0.00,0.0,WeatherDisplay:10.37,2013-01-21 17:54:00,
2013-01-21 11:59:00,7.2,-6.4,30.39,NNW,338,2.6,6.9,53,0.00,OVC,SCT,0.00,0.0,WeatherDisplay:10.37,2013-01-21 17:59:00,
2013-01-21 12:04:00,7.5,-6.1,30.39,NNW,338,2.0,3.5,53,0.00,OVC,SCT,0.00,0.0,WeatherDisplay:10.37,2013-01-21 18:04:00,
2013-01-21 12:09:00,7.3,-6.2,30.39,NNW,338,4.9,8.1,53,0.00,OVC,SCT,0.00,0.0,WeatherDisplay:10.37,2013-01-21 18:09:00,
2013-01-21 12:14:00,7.5,-6.1,30.36,West,270,5.4,5.8,53,0.00,OVC,SCT,0.00,0.0,WeatherDisplay:10.37,2013-01-21 18:14:00,
2013-01-21 12:19:00,7.7,-5.9,30.36,West,270,2.6,4.6,53,0.00,OVC,SCT,0.00,0.0,WeatherDisplay:10.37,2013-01-21 18:19:00,
2013-01-21 12:25:00,7.9,-5.7,30.36,NNW,338,2.4,3.6,53,0.00,OVC,SCT,0.00,0.0,WeatherDisplay:10.37,2013-01-21 18:25:00,
2013-01-21 12:30:00,8.1,-5.6,30.36,NNW,338,3.6,7.4,53,0.00,OVC,SCT,0.00,0.0,WeatherDisplay:10.37,2013-01-21 18:30:00,
2013-01-21 12:35:00,8.1,-5.6,30.36,NNW,338,4.0,5.8,53,0.00,OVC,SCT,0.00,0.0,WeatherDisplay:10.37,2013-01-21 18:35:00,
2013-01-21 12:40:00,8.1,-5.6,30.36,NNE,22,3.3,4.3,53,0.00,OVC,SCT,0.00,0.0,WeatherDisplay:10.37,2013-01-21 18:40:00,
2013-01-21 12:46:00,8.1,-5.6,30.36,West,270,4.5,6.4,53,0.00,OVC,SCT,0.00,0.0,WeatherDisplay:10.37,2013-01-21 18:46:00,
2013-01-21 12:51:00,8.6,-5.1,30.36,WNW,292,2.6,4.6,53,0.00,OVC,SCT,0.00,0.0,WeatherDisplay:10.37,2013-01-21 18:51:00,
2013-01-21 12:56:00,8.8,-4.9,30.36,NNE,22,2.0,4.6,53,0.00,OVC,SCT,0.00,0.0,WeatherDisplay:10.37,2013-01-21 18:56:00,
2013-01-21 13:01:00,8.8,-4.9,30.36,West,270,3.1,6.9,53,0.00,OVC,SCT,0.00,0.0,WeatherDisplay:10.37,2013-01-21 19:01:00,
2013-01-21 13:06:00,8.8,-4.9,30.36,West,270,3.8,6.9,53,0.00,OVC,SCT,0.00,0.0,WeatherDisplay:10.37,2013-01-21 19:06:00,
2013-01-21 13:11:00,9.0,-4.7,30.36,NNE,22,2.4,5.8,53,0.00,OVC,SCT,0.00,0.0,WeatherDisplay:10.37,2013-01-21 19:11:00,
2013-01-21 13:16:00,9.1,-4.6,30.36,NW,315,3.8,5.8,53,0.00,OVC,SCT,0.00,0.0,WeatherDisplay:10.37,2013-01-21 19:16:00,
2013-01-21 13:21:00,9.1,-4.6,30.36,NNW,338,3.3,5.8,53,0.00,OVC,SCT,0.00,0.0,WeatherDisplay:10.37,2013-01-21 19:21:00,
2013-01-21 13:26:00,9.3,-4.4,30.36,NNE,22,3.8,7.4,53,0.00,OVC,SCT,0.00,0.0,WeatherDisplay:10.37,2013-01-21 19:26:00,
2013-01-21 13:31:00,9.5,-4.2,30.33,NNW,338,2.4,5.8,53,0.00,OVC,SCT,0.00,0.0,WeatherDisplay:10.37,2013-01-21 19:31:00,
2013-01-21 13:37:00,9.5,-4.2,30.33,NNW,338,2.9,4.6,53,0.00,OVC,SCT,0.00,0.0,WeatherDisplay:10.37,2013-01-21 19:37:00,
2013-01-21 13:42:00,9.5,-4.2,30.33,NNW,338,1.6,4.6,53,0.00,OVC,SCT,0.00,0.0,WeatherDisplay:10.37,2013-01-21 19:42:00,
2013-01-21 13:47:00,10.0,-3.7,30.36,NNW,338,3.6,5.8,53,0.00,OVC,SCT,0.00,0.0,WeatherDisplay:10.37,2013-01-21 19:47:00,
2013-01-21 13:52:00,10.2,-3.5,30.36,NW,315,3.8,4.6,53,0.00,OVC,SCT,0.00,0.0,WeatherDisplay:10.37,2013-01-21 19:52:00,
2013-01-21 13:57:00,10.4,-3.4,30.33,NNW,338,3.8,6.9,53,0.00,OVC,SCT,0.00,0.0,WeatherDisplay:10.37,2013-01-21 19:57:00,
2013-01-21 14:02:00,10.6,-3.2,30.33,NW,315,6.0,9.2,53,0.00,OVC,SCT,0.00,0.0,WeatherDisplay:10.37,2013-01-21 20:02:00,
2013-01-21 14:07:00,10.8,-3.0,30.33,NNW,338,3.1,4.6,53,0.00,OVC,SCT,0.00,0.0,WeatherDisplay:10.37,2013-01-21 20:07:00,
2013-01-21 14:12:00,11.1,-2.7,30.33,WNW,292,2.9,4.6,53,0.00,OVC,SCT,0.00,0.0,WeatherDisplay:10.37,2013-01-21 20:12:00,
2013-01-21 14:17:00,11.3,-2.5,30.33,West,270,3.6,4.6,53,0.00,OVC,SCT,0.00,0.0,WeatherDisplay:10.37,2013-01-21 20:17:00,
2013-01-21 14:22:00,11.5,-2.4,30.33,SSW,202,2.4,2.4,53,0.00,OVC,SCT,0.00,0.0,WeatherDisplay:10.37,2013-01-21 20:22:00,
2013-01-21 14:27:00,11.7,-2.2,30.33,NW,315,3.3,5.8,53,0.00,OVC,SCT,0.00,0.0,WeatherDisplay:10.37,2013-01-21 20:27:00,
2013-01-21 14:32:00,11.8,-2.0,30.33,NNW,338,2.0,5.6,53,0.00,OVC,SCT,0.00,0.0,WeatherDisplay:10.37,2013-01-21 20:32:00,
2013-01-21 14:37:00,11.8,-2.0,30.33,WSW,248,4.9,8.1,53,0.00,OVC,SCT,0.00,0.0,WeatherDisplay:10.37,2013-01-21 20:37:00,
2013-01-21 14:42:00,11.8,-2.0,30.33,NNW,338,4.3,6.9,53,0.00,OVC,SCT,0.00,0.0,WeatherDisplay:10.37,2013-01-21 20:42:00,
2013-01-21 14:47:00,12.0,-1.9,30.33,NNW,338,2.9,3.5,53,0.00,OVC,SCT,0.00,0.0,WeatherDisplay:10.37,2013-01-21 20:47:00,
2013-01-21 14:53:00,11.8,-2.0,30.33,WNW,292,2.4,5.8,53,0.00,OVC,SCT,0.00,0.0,WeatherDisplay:10.37,2013-01-21 20:53:00,
2013-01-21 14:58:00,11.8,-2.0,30.33,SSW,202,2.2,3.5,53,0.00,OVC,SCT,0.00,0.0,WeatherDisplay:10.37,2013-01-21 20:58:00,
2013-01-21 15:03:00,11.8,-2.0,30.33,North,0,3.3,5.8,53,0.00,OVC,SCT,0.00,0.0,WeatherDisplay:10.37,2013-01-21 21:03:00,
2013-01-21 15:08:00,11.7,-2.2,30.33,SSE,158,2.9,5.8,53,0.00,OVC,SCT,0.00,0.0,WeatherDisplay:10.37,2013-01-21 21:08:00,
2013-01-21 15:13:00,11.3,-2.5,30.33,West,270,3.1,5.8,53,0.00,OVC,SCT,0.00,0.0,WeatherDisplay:10.37,2013-01-21 21:13:00,
2013-01-21 15:18:00,11.5,-2.4,30.33,NNE,22,3.8,5.8,53,0.00,OVC,SCT,0.00,0.0,WeatherDisplay:10.37,2013-01-21 21:18:00,
2013-01-21 15:23:00,11.3,-2.5,30.33,WNW,292,4.5,5.8,53,0.00,OVC,SCT,0.00,0.0,WeatherDisplay:10.37,2013-01-21 21:23:00,
2013-01-21 15:28:00,12.0,-1.9,30.33,West,270,4.5,5.8,53,0.00,OVC,SCT,0.00,0.0,WeatherDisplay:10.37,2013-01-21 21:28:00,
2013-01-21 15:33:00,12.2,-1.7,30.33,WNW,292,2.0,2.9,53,0.00,OVC,SCT,0.00,0.0,WeatherDisplay:10.37,2013-01-21 21:33:00,
2013-01-21 15:38:00,12.2,-1.7,30.33,NNW,338,3.6,6.9,53,0.00,OVC,SCT,0.00,0.0,WeatherDisplay:10.37,2013-01-21 21:38:00,
2013-01-21 15:43:00,12.0,-1.9,30.33,WSW,248,3.3,4.6,53,0.00,OVC,SCT,0.00,0.0,WeatherDisplay:10.37,2013-01-21 21:43:00,
2013-01-21 15:48:00,12.0,-1.9,30.33,WNW,292,3.8,7.6,53,0.00,OVC,SCT,0.00,0.0,WeatherDisplay:10.37,2013-01-21 21:48:00,
2013-01-21 15:53:00,11.8,-2.0,30.33,WNW,292,4.5,5.8,53,0.00,OVC,SCT,0.00,0.0,WeatherDisplay:10.37,2013-01-21 21:53:00,
2013-01-21 15:58:00,12.0,-1.9,30.33,WNW,292,2.2,2.3,53,0.00,OVC,SCT,0.00,0.0,WeatherDisplay:10.37,2013-01-21 21:58:00,
2013-01-21 16:03:00,12.0,-1.9,30.33,NNW,338,4.3,5.8,53,0.00,OVC,SCT,0.00,0.0,WeatherDisplay:10.37,2013-01-21 22:03:00,
2013-01-21 16:08:00,12.0,-1.9,30.33,West,270,2.6,4.6,53,0.00,OVC,SCT,0.00,0.0,WeatherDisplay:10.37,2013-01-21 22:08:00,
2013-01-21 16:13:00,12.0,-1.9,30.33,NNE,22,2.9,4.6,53,0.00,OVC,SCT,0.00,0.0,WeatherDisplay:10.37,2013-01-21 22:13:00,
2013-01-21 16:18:00,12.0,-1.9,30.33,West,270,2.6,4.6,53,0.00,OVC,SCT,0.00,0.0,WeatherDisplay:10.37,2013-01-21 22:18:00,
2013-01-21 16:24:00,12.2,-1.7,30.33,NNW,338,2.4,3.3,53,0.00,OVC,SCT,0.00,0.0,WeatherDisplay:10.37,2013-01-21 22:24:00,
2013-01-21 16:29:00,12.2,-1.7,30.33,North,0,2.2,4.0,53,0.00,OVC,SCT,0.00,0.0,WeatherDisplay:10.37,2013-01-21 22:29:00,
2013-01-21 16:34:00,12.0,-1.9,30.33,WNW,292,4.0,5.8,53,0.00,OVC,SCT,0.00,0.0,WeatherDisplay:10.37,2013-01-21 22:34:00,
2013-01-21 16:39:00,12.0,-1.9,30.33,West,270,1.6,3.5,53,0.00,OVC,SCT,0.00,0.0,WeatherDisplay:10.37,2013-01-21 22:39:00,
2013-01-21 16:44:00,12.0,-1.9,30.33,NNE,22,2.9,4.6,53,0.00,OVC,SCT,0.00,0.0,WeatherDisplay:10.37,2013-01-21 22:44:00,
2013-01-21 16:49:00,12.0,-1.9,30.33,SSW,202,2.6,4.0,53,0.00,OVC,SCT,0.00,0.0,WeatherDisplay:10.37,2013-01-21 22:49:00,
2013-01-21 16:54:00,12.0,-1.9,30.33,NNW,338,3.3,4.6,53,0.00,OVC,SCT,0.00,0.0,WeatherDisplay:10.37,2013-01-21 22:54:00,
2013-01-21 16:59:00,11.8,-2.0,30.30,WSW,248,3.1,3.5,53,0.00,OVC,SCT,0.00,0.0,WeatherDisplay:10.37,2013-01-21 22:59:00,
2013-01-21 17:04:00,12.0,-1.9,30.30,NNW,338,2.9,4.6,53,0.00,OVC,SCT,0.00,0.0,WeatherDisplay:10.37,2013-01-21 23:04:00,
2013-01-21 17:09:00,11.8,-2.0,30.30,NW,315,3.8,5.8,53,0.00,OVC,SCT,0.00,0.0,WeatherDisplay:10.37,2013-01-21 23:09:00,
2013-01-21 17:14:00,11.8,-2.0,30.30,West,270,3.1,4.6,53,0.00,OVC,SCT,0.00,0.0,WeatherDisplay:10.37,2013-01-21 23:14:00,
2013-01-21 17:19:00,12.0,-1.9,30.30,NW,315,1.6,3.1,53,0.00,OVC,SCT,0.00,0.0,WeatherDisplay:10.37,2013-01-21 23:19:00,
2013-01-21 17:24:00,12.0,-1.9,30.30,WNW,292,2.0,3.3,53,0.00,OVC,SCT,0.00,0.0,WeatherDisplay:10.37,2013-01-21 23:24:00,
2013-01-21 17:29:00,12.0,-1.9,30.30,NNE,22,2.9,3.6,53,0.00,OVC,SCT,0.00,0.0,WeatherDisplay:10.37,2013-01-21 23:29:00,
2013-01-21 17:34:00,12.0,-1.9,30.30,SW,225,2.0,2.0,53,0.00,OVC,SCT,0.00,0.0,WeatherDisplay:10.37,2013-01-21 23:34:00,
2013-01-21 17:39:00,12.0,-1.9,30.30,NNW,338,3.1,4.6,53,0.00,OVC,SCT,0.00,0.0,WeatherDisplay:10.37,2013-01-21 23:39:00,
2013-01-21 17:45:00,12.0,-1.9,30.30,NNW,344,2.0,5.0,53,0.00,OVC,SCT,0.00,0.0,WeatherDisplay:10.37,2013-01-21 23:45:00,
2013-01-21 17:50:00,12.0,-1.9,30.30,NNW,338,2.4,3.5,53,0.00,OVC,SCT,0.00,0.0,WeatherDisplay:10.37,2013-01-21 23:50:00,
2013-01-21 17:55:00,12.0,-1.9,30.30,ENE,68,2.2,4.6,53,0.00,OVC,SCT,0.00,0.0,WeatherDisplay:10.37,2013-01-21 23:55:00,
2013-01-21 18:00:00,12.0,-1.9,30.30,West,270,1.6,4.6,53,0.00,CLR,SCT,0.00,0.0,WeatherDisplay:10.37,2013-01-22 00:00:00,
2013-01-21 18:05:00,12.0,-1.9,30.30,NNW,338,2.6,4.6,53,0.00,CLR,SCT,0.00,0.0,WeatherDisplay:10.37,2013-01-22 00:05:00,
2013-01-21 18:10:00,12.0,-1.9,30.30,NNE,22,2.4,4.6,53,0.00,CLR,SCT,0.00,0.0,WeatherDisplay:10.37,2013-01-22 00:10:00,
2013-01-21 18:15:00,12.0,-1.9,30.30,East,90,1.1,4.0,53,0.00,CLR,SCT,0.00,0.0,WeatherDisplay:10.37,2013-01-22 00:15:00,
2013-01-21 18:20:00,12.2,-1.7,30.30,WSW,248,1.1,1.1,53,0.00,CLR,SCT,0.00,0.0,WeatherDisplay:10.37,2013-01-22 00:20:00,
2013-01-21 18:25:00,12.0,-1.9,30.30,NNW,338,0.0,2.3,53,0.00,CLR,SCT,0.00,0.0,WeatherDisplay:10.37,2013-01-22 00:25:00,
2013-01-21 18:30:00,12.0,-1.9,30.30,North,0,1.1,2.6,53,0.00,CLR,SCT,0.00,0.0,WeatherDisplay:10.37,2013-01-22 00:30:00,
2013-01-21 18:35:00,12.0,-1.9,30.30,NNW,338,0.9,2.3,53,0.00,CLR,SCT,0.00,0.0,WeatherDisplay:10.37,2013-01-22 00:35:00,
2013-01-21 18:40:00,12.0,-1.9,30.30,NNE,22,0.9,2.3,53,0.00,CLR,SCT,0.00,0.0,WeatherDisplay:10.37,2013-01-22 00:40:00,
2013-01-21 18:45:00,11.8,-2.0,30.33,NNE,22,2.0,2.3,53,0.00,CLR,SCT,0.00,0.0,WeatherDisplay:10.37,2013-01-22 00:45:00,
2013-01-21 18:50:00,11.8,-2.0,30.33,WNW,292,2.0,3.5,53,0.00,CLR,SCT,0.00,0.0,WeatherDisplay:10.37,2013-01-22 00:50:00,
2013-01-21 18:55:00,11.7,-2.2,30.33,North,0,2.2,2.3,53,0.00,CLR,SCT,0.00,0.0,WeatherDisplay:10.37,2013-01-22 00:55:00,
2013-01-21 19:00:00,11.7,-2.2,30.30,NNE,22,1.1,3.3,53,0.00,CLR,SCT,0.00,0.0,WeatherDisplay:10.37,2013-01-22 01:00:00,
2013-01-21 19:05:00,11.5,-2.4,30.30,NNE,22,1.1,2.3,53,0.00,CLR,SCT,0.00,0.0,WeatherDisplay:10.37,2013-01-22 01:05:00,
2013-01-21 19:10:00,11.3,-2.5,30.30,NNE,22,0.9,2.3,53,0.00,CLR,SCT,0.00,0.0,WeatherDisplay:10.37,2013-01-22 01:10:00,
2013-01-21 19:15:00,11.3,-2.5,30.33,East,90,0.0,1.1,53,0.00,CLR,SCT,0.00,0.0,WeatherDisplay:10.37,2013-01-22 01:15:00,
2013-01-21 19:20:00,11.1,-2.7,30.33,SSW,202,0.0,2.3,53,0.00,CLR,SCT,0.00,0.0,WeatherDisplay:10.37,2013-01-22 01:20:00,
2013-01-21 19:26:00,11.1,-2.7,30.33,North,0,0.0,1.6,53,0.00,CLR,SCT,0.00,0.0,WeatherDisplay:10.37,2013-01-22 01:26:00,
2013-01-21 19:31:00,11.1,-2.7,30.30,North,0,1.4,2.9,53,0.00,CLR,SCT,0.00,0.0,WeatherDisplay:10.37,2013-01-22 01:31:00,
2013-01-21 19:36:00,11.1,-2.7,30.30,NNW,338,2.6,4.6,53,0.00,CLR,SCT,0.00,0.0,WeatherDisplay:10.37,2013-01-22 01:36:00,
2013-01-21 19:41:00,11.3,-2.5,30.30,NW,315,1.6,2.3,53,0.00,CLR,SCT,0.00,0.0,WeatherDisplay:10.37,2013-01-22 01:41:00,
2013-01-21 19:46:00,11.3,-2.5,30.33,NNE,22,0.9,2.3,53,0.00,CLR,SCT,0.00,0.0,WeatherDisplay:10.37,2013-01-22 01:46:00,
2013-01-21 19:51:00,11.3,-2.5,30.33,North,0,2.0,3.5,53,0.00,CLR,SCT,0.00,0.0,WeatherDisplay:10.37,2013-01-22 01:51:00,
2013-01-21 19:56:00,11.5,-2.4,30.33,NNE,22,1.4,2.9,53,0.00,CLR,SCT,0.00,0.0,WeatherDisplay:10.37,2013-01-22 01:56:00,
2013-01-21 20:01:00,11.3,-2.5,30.30,NNE,22,2.0,3.5,53,0.00,CLR,SCT,0.00,0.0,WeatherDisplay:10.37,2013-01-22 02:01:00,
2013-01-21 20:06:00,11.3,-2.5,30.30,SSW,202,0.9,3.5,53,0.00,CLR,SCT,0.00,0.0,WeatherDisplay:10.37,2013-01-22 02:06:00,
2013-01-21 20:11:00,11.3,-2.5,30.30,ESE,112,2.6,3.5,53,0.00,CLR,SCT,0.00,0.0,WeatherDisplay:10.37,2013-01-22 02:11:00,
2013-01-21 20:16:00,11.3,-2.5,30.30,North,0,1.4,3.5,53,0.00,CLR,SCT,0.00,0.0,WeatherDisplay:10.37,2013-01-22 02:16:00,
2013-01-21 20:21:00,11.3,-2.5,30.30,NNW,338,1.1,2.3,53,0.00,CLR,SCT,0.00,0.0,WeatherDisplay:10.37,2013-01-22 02:21:00,
2013-01-21 20:26:00,11.3,-2.5,30.30,NNE,22,2.0,3.5,53,0.00,CLR,SCT,0.00,0.0,WeatherDisplay:10.37,2013-01-22 02:26:00,
2013-01-21 20:31:00,11.3,-2.5,30.30,ENE,68,1.4,4.6,53,0.00,CLR,SCT,0.00,0.0,WeatherDisplay:10.37,2013-01-22 02:31:00,
2013-01-21 20:36:00,11.3,-2.5,30.30,East,90,1.6,3.5,53,0.00,CLR,SCT,0.00,0.0,WeatherDisplay:10.37,2013-01-22 02:36:00,
2013-01-21 20:41:00,11.3,-2.5,30.30,NW,315,1.6,2.3,53,0.00,CLR,SCT,0.00,0.0,WeatherDisplay:10.37,2013-01-22 02:41:00,
2013-01-21 20:46:00,11.3,-2.5,30.30,North,0,1.4,3.5,53,0.00,CLR,SCT,0.00,0.0,WeatherDisplay:10.37,2013-01-22 02:46:00,
2013-01-21 20:52:00,11.5,-2.4,30.30,East,90,1.6,3.5,53,0.00,CLR,SCT,0.00,0.0,WeatherDisplay:10.37,2013-01-22 02:52:00,
2013-01-21 20:57:00,11.5,-2.4,30.30,NNE,22,2.0,3.5,53,0.00,CLR,SCT,0.00,0.0,WeatherDisplay:10.37,2013-01-22 02:57:00,
2013-01-21 21:02:00,11.5,-2.4,30.30,North,0,2.2,3.5,53,0.00,CLR,SCT,0.00,0.0,WeatherDisplay:10.37,2013-01-22 03:02:00,
2013-01-21 21:07:00,11.5,-2.4,30.30,NNW,338,0.0,2.3,53,0.00,CLR,SCT,0.00,0.0,WeatherDisplay:10.37,2013-01-22 03:07:00,
2013-01-21 21:12:00,11.7,-2.2,30.30,East,90,0.0,1.1,53,0.00,CLR,SCT,0.00,0.0,WeatherDisplay:10.37,2013-01-22 03:12:00,
2013-01-21 21:17:00,11.7,-2.2,30.30,ENE,68,0.0,2.3,53,0.00,CLR,SCT,0.00,0.0,WeatherDisplay:10.37,2013-01-22 03:17:00,
2013-01-21 21:22:00,11.7,-2.2,30.30,NNE,22,2.9,3.5,53,0.00,CLR,SCT,0.00,0.0,WeatherDisplay:10.37,2013-01-22 03:22:00,
2013-01-21 21:27:00,11.7,-2.2,30.30,North,0,1.4,3.1,53,0.00,CLR,SCT,0.00,0.0,WeatherDisplay:10.37,2013-01-22 03:27:00,
2013-01-21 21:32:00,11.5,-2.4,30.30,ENE,68,1.1,2.3,53,0.00,CLR,SCT,0.00,0.0,WeatherDisplay:10.37,2013-01-22 03:32:00,
2013-01-21 21:37:00,11.3,-2.5,30.30,NE,45,2.0,2.6,53,0.00,CLR,SCT,0.00,0.0,WeatherDisplay:10.37,2013-01-22 03:37:00,
2013-01-21 21:42:00,11.3,-2.5,30.30,NNE,22,2.2,3.5,53,0.00,CLR,SCT,0.00,0.0,WeatherDisplay:10.37,2013-01-22 03:42:00,
2013-01-21 21:47:00,11.1,-2.7,30.30,NNE,22,2.4,2.4,53,0.00,CLR,SCT,0.00,0.0,WeatherDisplay:10.37,2013-01-22 03:47:00,
2013-01-21 21:52:00,11.1,-2.7,30.30,North,0,1.4,2.3,53,0.00,CLR,SCT,0.00,0.0,WeatherDisplay:10.37,2013-01-22 03:52:00,
2013-01-21 21:57:00,10.9,-2.9,30.30,NE,45,2.2,2.3,53,0.00,CLR,SCT,0.00,0.0,WeatherDisplay:10.37,2013-01-22 03:57:00,
2013-01-21 22:02:00,10.9,-2.9,30.30,NNW,338,1.6,2.3,53,0.00,CLR,SCT,0.00,0.0,WeatherDisplay:10.37,2013-01-22 04:02:00,
2013-01-21 22:07:00,10.8,-3.0,30.30,ESE,112,1.4,2.3,53,0.00,CLR,SCT,0.00,0.0,WeatherDisplay:10.37,2013-01-22 04:07:00,
2013-01-21 22:12:00,10.8,-3.0,30.30,East,90,1.4,2.3,53,0.00,CLR,SCT,0.00,0.0,WeatherDisplay:10.37,2013-01-22 04:12:00,
2013-01-21 22:17:00,10.8,-3.0,30.30,ENE,68,1.6,3.5,53,0.00,CLR,SCT,0.00,0.0,WeatherDisplay:10.37,2013-01-22 04:17:00,
2013-01-21 22:22:00,10.8,-3.0,30.30,East,90,2.4,3.5,53,0.00,CLR,SCT,0.00,0.0,WeatherDisplay:10.37,2013-01-22 04:22:00,
2013-01-21 22:27:00,10.6,-3.2,30.30,NNE,22,1.6,2.4,53,0.00,CLR,SCT,0.00,0.0,WeatherDisplay:10.37,2013-01-22 04:27:00,
2013-01-21 22:33:00,10.4,-3.4,30.30,ESE,112,2.0,2.3,53,0.00,CLR,SCT,0.00,0.0,WeatherDisplay:10.37,2013-01-22 04:33:00,
2013-01-21 22:38:00,10.4,-3.4,30.30,WSW,248,0.9,1.1,53,0.00,CLR,SCT,0.00,0.0,WeatherDisplay:10.37,2013-01-22 04:38:00,
2013-01-21 22:43:00,10.4,-3.4,30.30,East,90,0.0,1.4,53,0.00,CLR,SCT,0.00,0.0,WeatherDisplay:10.37,2013-01-22 04:43:00,
2013-01-21 22:48:00,10.2,-3.5,30.30,ESE,112,0.9,2.3,53,0.00,CLR,SCT,0.00,0.0,WeatherDisplay:10.37,2013-01-22 04:48:00,
2013-01-21 22:53:00,10.2,-3.5,30.30,ENE,68,0.0,1.1,53,0.00,CLR,SCT,0.00,0.0,WeatherDisplay:10.37,2013-01-22 04:53:00,
2013-01-21 22:58:00,10.2,-3.5,30.30,East,90,0.0,2.3,53,0.00,CLR,SCT,0.00,0.0,WeatherDisplay:10.37,2013-01-22 04:58:00,
2013-01-21 23:00:00,10.2,-3.5,30.30,East,90,1.1,2.3,53,0.00,CLR,SCT,0.00,0.0,WeatherDisplay:10.37,2013-01-22 05:00:00,
2013-01-21 23:01:00,10.2,-3.5,30.30,East,90,0.0,2.3,53,0.00,CLR,SCT,0.00,0.0,WeatherDisplay:10.37,2013-01-22 05:01:00,
2013-01-21 23:06:00,10.0,-3.7,30.30,ESE,112,2.0,2.3,53,0.00,CLR,SCT,0.00,0.0,WeatherDisplay:10.37,2013-01-22 05:06:00,
2013-01-21 23:11:00,10.0,-3.7,30.30,ESE,112,1.6,2.3,53,0.00,CLR,SCT,0.00,0.0,WeatherDisplay:10.37,2013-01-22 05:11:00,
2013-01-21 23:16:00,10.2,-3.5,30.30,ESE,112,2.0,2.3,53,0.00,CLR,SCT,0.00,0.0,WeatherDisplay:10.37,2013-01-22 05:16:00,
2013-01-21 23:21:00,10.2,-3.5,30.30,ESE,112,0.0,1.4,53,0.00,CLR,SCT,0.00,0.0,WeatherDisplay:10.37,2013-01-22 05:21:00,
2013-01-21 23:26:00,10.2,-3.5,30.30,ESE,112,0.9,1.1,53,0.00,CLR,SCT,0.00,0.0,WeatherDisplay:10.37,2013-01-22 05:26:00,
2013-01-21 23:31:00,10.2,-3.5,30.30,ESE,112,1.6,2.3,53,0.00,CLR,SCT,0.00,0.0,WeatherDisplay:10.37,2013-01-22 05:31:00,
2013-01-21 23:36:00,10.2,-3.5,30.30,ESE,112,1.4,2.0,53,0.00,CLR,SCT,0.00,0.0,WeatherDisplay:10.37,2013-01-22 05:36:00,
2013-01-21 23:41:00,10.2,-3.5,30.30,ESE,112,0.0,1.1,53,0.00,CLR,SCT,0.00,0.0,WeatherDisplay:10.37,2013-01-22 05:41:00,
2013-01-21 23:46:00,10.4,-3.4,30.30,ENE,68,0.0,1.1,53,0.00,CLR,SCT,0.00,0.0,WeatherDisplay:10.37,2013-01-22 05:46:00,
2013-01-21 23:52:00,10.4,-3.4,30.30,West,270,0.0,1.1,53,0.00,CLR,SCT,0.00,0.0,WeatherDisplay:10.37,2013-01-22 05:52:00,
2013-01-21 23:57:00,10.6,-3.2,30.30,North,0,0.9,2.3,53,0.00,CLR,SCT,0.00,0.0,WeatherDisplay:10.37,2013-01-22 05:57:00,